createdAt,value
2023-09-07T00:01:09.089Z,18.29
2023-09-07T00:03:41.774Z,18.25
2023-09-07T00:06:12.734Z,18.22
2023-09-07T00:08:43.074Z,18.17
2023-09-07T00:11:12.756Z,18.13
2023-09-07T00:13:43.214Z,18.09
2023-09-07T00:16:13.100Z,18.05
2023-09-07T00:18:42.746Z,17.98
2023-09-07T00:21:12.994Z,17.92
2023-09-07T00:23:43.116Z,17.86
2023-09-07T00:26:13.277Z,17.81
2023-09-07T00:28:43.601Z,17.75
2023-09-07T00:31:14.028Z,17.71
2023-09-07T00:33:44.047Z,17.64
2023-09-07T00:36:14.155Z,17.60
2023-09-07T00:38:43.638Z,17.54
2023-09-07T00:41:14.796Z,17.48
2023-09-07T00:43:45.118Z,17.43
2023-09-07T00:46:14.868Z,17.39
2023-09-07T00:48:44.843Z,17.33
2023-09-07T00:51:14.655Z,17.28
2023-09-07T00:53:44.984Z,17.25
2023-09-07T00:56:17.351Z,17.18
2023-09-07T00:58:47.611Z,17.12
2023-09-07T01:01:17.911Z,17.06
2023-09-07T01:03:48.380Z,17.02
2023-09-07T01:06:28.285Z,16.97
2023-09-07T01:09:03.256Z,16.91
2023-09-07T01:11:38.343Z,16.87
2023-09-07T01:14:08.292Z,16.82
2023-09-07T01:16:40.200Z,16.77
2023-09-07T01:19:11.041Z,16.72
2023-09-07T01:21:41.477Z,16.68
2023-09-07T01:24:13.440Z,16.64
2023-09-07T01:26:43.805Z,16.58
2023-09-07T01:29:13.873Z,16.53
2023-09-07T01:31:44.680Z,16.50
2023-09-07T01:34:15.750Z,16.46
2023-09-07T01:36:45.661Z,16.42
2023-09-07T01:39:16.104Z,16.38
2023-09-07T01:41:46.102Z,16.34
2023-09-07T01:44:17.037Z,16.28
2023-09-07T01:46:47.230Z,16.25
2023-09-07T01:49:17.271Z,16.21
2023-09-07T01:51:47.599Z,16.19
2023-09-07T01:54:17.747Z,16.16
2023-09-07T01:56:47.468Z,16.12
2023-09-07T01:59:17.825Z,16.09
2023-09-07T02:01:48.101Z,16.05
2023-09-07T02:04:18.418Z,16.02
2023-09-07T02:06:48.721Z,16.00
2023-09-07T02:09:18.443Z,15.96
2023-09-07T02:11:48.751Z,15.92
2023-09-07T02:14:18.927Z,15.90
2023-09-07T02:16:49.571Z,15.86
2023-09-07T02:19:23.163Z,15.82
2023-09-07T02:21:53.935Z,15.78
2023-09-07T02:24:24.264Z,15.78
2023-09-07T02:26:54.590Z,15.75
2023-09-07T02:29:25.109Z,15.70
2023-09-07T02:31:55.437Z,15.67
2023-09-07T02:34:26.583Z,15.64
2023-09-07T02:36:57.927Z,15.61
2023-09-07T02:39:28.045Z,15.59
2023-09-07T02:41:58.183Z,15.55
2023-09-07T02:44:28.277Z,15.53
2023-09-07T02:46:58.806Z,15.51
2023-09-07T02:49:28.701Z,15.50
2023-09-07T02:51:59.053Z,15.47
2023-09-07T02:54:30.188Z,15.45
2023-09-07T02:57:00.523Z,15.44
2023-09-07T02:59:30.623Z,15.42
2023-09-07T03:02:01.774Z,15.40
2023-09-07T03:04:31.885Z,15.40
2023-09-07T03:07:03.650Z,15.37
2023-09-07T03:09:32.947Z,15.37
2023-09-07T03:12:04.915Z,15.34
2023-09-07T03:14:35.025Z,15.33
2023-09-07T03:17:06.291Z,15.31
2023-09-07T03:19:38.949Z,15.29
2023-09-07T03:22:09.707Z,15.28
2023-09-07T03:24:39.395Z,15.28
2023-09-07T03:27:11.689Z,15.26
2023-09-07T03:29:42.694Z,15.25
2023-09-07T03:32:12.945Z,15.24
2023-09-07T03:34:43.179Z,15.23
2023-09-07T03:37:13.172Z,15.22
2023-09-07T03:39:43.565Z,15.21
2023-09-07T03:42:13.633Z,15.19
2023-09-07T03:44:43.808Z,15.19
2023-09-07T03:47:16.541Z,15.19
2023-09-07T03:49:46.918Z,15.17
2023-09-07T03:52:17.035Z,15.17
2023-09-07T03:54:46.764Z,15.17
2023-09-07T03:57:16.656Z,15.17
2023-09-07T03:59:46.561Z,15.16
2023-09-07T04:02:16.793Z,15.16
2023-09-07T04:04:50.570Z,15.14
2023-09-07T04:07:20.807Z,15.15
2023-09-07T04:09:53.184Z,15.14
2023-09-07T04:12:24.524Z,15.15
2023-09-07T04:14:54.906Z,15.14
2023-09-07T04:17:24.802Z,15.14
2023-09-07T04:19:55.096Z,15.14
2023-09-07T04:22:25.217Z,15.15
2023-09-07T04:24:55.604Z,15.15
2023-09-07T04:27:26.720Z,15.16
2023-09-07T04:29:57.263Z,15.17
2023-09-07T04:32:28.623Z,15.18
2023-09-07T04:35:00.233Z,15.21
2023-09-07T04:37:29.522Z,15.23
2023-09-07T04:40:00.064Z,15.24
2023-09-07T04:42:30.027Z,15.26
2023-09-07T04:45:00.374Z,15.30
2023-09-07T04:47:30.713Z,15.36
2023-09-07T04:50:01.242Z,15.42
2023-09-07T04:52:31.756Z,15.50
2023-09-07T04:55:01.887Z,15.58
2023-09-07T04:57:33.426Z,15.67
2023-09-07T05:00:05.014Z,15.77
2023-09-07T05:02:39.188Z,15.87
2023-09-07T05:05:11.293Z,15.98
2023-09-07T05:07:40.046Z,16.09
2023-09-07T05:10:12.998Z,16.19
2023-09-07T05:12:42.240Z,16.28
2023-09-07T05:15:13.666Z,16.38
2023-09-07T05:17:43.595Z,16.50
2023-09-07T05:20:14.837Z,16.60
2023-09-07T05:22:44.835Z,16.73
2023-09-07T05:25:15.383Z,16.85
2023-09-07T05:27:45.698Z,16.98
2023-09-07T05:30:16.430Z,17.10
2023-09-07T05:32:47.569Z,17.23
2023-09-07T05:35:18.509Z,17.37
2023-09-07T05:37:50.203Z,17.51
2023-09-07T05:40:20.388Z,17.63
2023-09-07T05:42:50.833Z,17.77
2023-09-07T05:45:21.439Z,17.91
2023-09-07T05:47:51.383Z,18.05
2023-09-07T05:50:21.388Z,18.17
2023-09-07T05:52:51.305Z,18.31
2023-09-07T05:55:21.749Z,18.46
2023-09-07T05:57:52.440Z,18.59
2023-09-07T06:00:24.545Z,18.73
2023-09-07T06:02:55.454Z,18.87
2023-09-07T06:05:26.067Z,19.02
2023-09-07T06:07:56.400Z,19.17
2023-09-07T06:10:28.555Z,19.34
2023-09-07T06:13:01.361Z,19.50
2023-09-07T06:15:32.166Z,19.66
2023-09-07T06:18:02.922Z,19.83
2023-09-07T06:20:33.375Z,19.99
2023-09-07T06:23:05.090Z,20.19
2023-09-07T06:25:35.333Z,20.37
2023-09-07T06:28:07.576Z,20.56
2023-09-07T06:30:37.739Z,20.77
2023-09-07T06:33:08.463Z,20.96
2023-09-07T06:35:39.372Z,21.13
2023-09-07T06:38:09.900Z,21.25
2023-09-07T06:40:40.223Z,21.36
2023-09-07T06:43:10.151Z,21.45
2023-09-07T06:45:40.381Z,21.54
2023-09-07T06:48:10.218Z,21.68
2023-09-07T06:50:40.341Z,21.85
2023-09-07T06:53:10.608Z,21.98
2023-09-07T06:55:41.555Z,22.13
2023-09-07T06:58:11.875Z,22.28
2023-09-07T07:00:41.794Z,22.44
2023-09-07T07:03:12.275Z,22.58
2023-09-07T07:05:43.254Z,22.70
2023-09-07T07:08:13.372Z,22.81
2023-09-07T07:10:44.589Z,22.91
2023-09-07T07:13:14.901Z,23.01
2023-09-07T07:15:45.358Z,23.12
2023-09-07T07:18:15.475Z,23.23
2023-09-07T07:20:45.943Z,23.37
2023-09-07T07:23:16.125Z,23.51
2023-09-07T07:25:46.288Z,23.65
2023-09-07T07:28:16.131Z,23.76
2023-09-07T07:30:46.391Z,23.88
2023-09-07T07:33:16.873Z,24.01
2023-09-07T07:35:47.561Z,24.14
2023-09-07T07:38:18.270Z,24.25
2023-09-07T07:40:48.371Z,24.38
2023-09-07T07:43:19.145Z,24.48
2023-09-07T07:45:49.505Z,24.61
2023-09-07T07:48:19.591Z,24.73
2023-09-07T07:50:49.259Z,24.81
2023-09-07T07:53:19.881Z,24.89
2023-09-07T07:55:50.940Z,25.00
2023-09-07T07:58:24.550Z,25.10
2023-09-07T08:00:58.287Z,25.16
2023-09-07T08:03:29.791Z,25.22
2023-09-07T08:06:01.051Z,25.25
2023-09-07T08:08:31.839Z,25.28
2023-09-07T08:11:06.398Z,25.31
2023-09-07T08:13:37.971Z,25.33
2023-09-07T08:16:09.939Z,25.34
2023-09-07T08:18:41.427Z,25.37
2023-09-07T08:21:13.849Z,25.39
2023-09-07T08:23:44.165Z,25.39
2023-09-07T08:26:15.722Z,25.41
2023-09-07T08:28:47.352Z,25.46
2023-09-07T08:31:22.662Z,25.55
2023-09-07T08:33:53.156Z,25.67
2023-09-07T08:36:24.302Z,25.76
2023-09-07T08:38:55.232Z,25.88
2023-09-07T08:41:27.500Z,26.00
2023-09-07T08:43:59.600Z,26.12
2023-09-07T08:46:31.591Z,26.24
2023-09-07T08:49:04.465Z,26.36
2023-09-07T08:51:34.744Z,26.47
2023-09-07T08:54:04.861Z,26.56
2023-09-07T08:56:35.400Z,26.69
2023-09-07T08:59:06.605Z,26.81
2023-09-07T09:01:35.712Z,26.95
2023-09-07T09:04:07.715Z,27.08
2023-09-07T09:06:37.438Z,27.21
2023-09-07T09:09:07.443Z,27.37
2023-09-07T09:11:37.708Z,27.48
2023-09-07T09:14:08.449Z,27.60
2023-09-07T09:16:38.578Z,27.73
2023-09-07T09:19:09.924Z,27.84
2023-09-07T09:21:39.526Z,27.95
2023-09-07T09:24:12.254Z,28.05
2023-09-07T09:26:42.316Z,28.15
2023-09-07T09:29:12.558Z,28.23
2023-09-07T09:31:42.787Z,28.31
2023-09-07T09:34:13.914Z,28.39
2023-09-07T09:36:43.611Z,28.47
2023-09-07T09:39:25.227Z,28.51
2023-09-07T09:41:56.483Z,28.61
2023-09-07T09:44:26.476Z,28.69
2023-09-07T09:46:58.902Z,28.80
2023-09-07T09:49:29.357Z,28.94
2023-09-07T09:52:00.295Z,29.04
2023-09-07T09:54:31.645Z,29.15
2023-09-07T09:57:02.164Z,29.25
2023-09-07T09:59:32.293Z,29.35
2023-09-07T10:02:03.666Z,29.44
2023-09-07T10:04:34.575Z,29.55
2023-09-07T10:07:06.593Z,29.68
2023-09-07T10:09:39.576Z,29.80
2023-09-07T10:12:16.493Z,29.89
2023-09-07T10:14:52.137Z,29.98
2023-09-07T10:17:25.783Z,30.10
2023-09-07T10:20:06.504Z,30.19
2023-09-07T10:22:37.166Z,30.25
2023-09-07T10:25:18.618Z,30.37
2023-09-07T10:27:48.862Z,30.47
2023-09-07T10:30:23.656Z,30.58
2023-09-07T10:32:53.667Z,30.70
2023-09-07T10:35:25.103Z,30.82
2023-09-07T10:37:55.534Z,30.94
2023-09-07T10:40:27.110Z,31.04
2023-09-07T10:43:06.776Z,31.11
2023-09-07T10:45:36.918Z,31.19
2023-09-07T10:48:09.330Z,31.24
2023-09-07T10:50:47.169Z,31.28
2023-09-07T10:53:25.479Z,31.30
2023-09-07T10:55:58.074Z,31.35
2023-09-07T10:58:31.386Z,31.39
2023-09-07T11:01:02.184Z,31.44
2023-09-07T11:03:33.298Z,31.45
2023-09-07T11:06:07.739Z,31.55
2023-09-07T11:08:38.497Z,31.65
2023-09-07T11:11:07.570Z,31.75
2023-09-07T11:13:37.690Z,31.85
2023-09-07T11:16:10.569Z,31.96
2023-09-07T11:18:41.470Z,32.11
2023-09-07T11:21:12.786Z,32.21
2023-09-07T11:23:44.444Z,32.32
2023-09-07T11:26:16.676Z,32.41
2023-09-07T11:28:48.970Z,32.42
2023-09-07T11:31:22.166Z,32.46
2023-09-07T11:33:52.161Z,32.49
2023-09-07T11:36:25.059Z,32.45
2023-09-07T11:38:55.258Z,32.46
2023-09-07T11:41:25.376Z,32.49
2023-09-07T11:43:54.882Z,32.48
2023-09-07T11:46:25.687Z,32.39
2023-09-07T11:48:56.406Z,32.38
2023-09-07T11:51:26.675Z,32.38
2023-09-07T11:53:57.001Z,32.38
2023-09-07T11:56:27.734Z,32.36
2023-09-07T11:58:57.714Z,32.35
2023-09-07T12:01:28.531Z,32.36
2023-09-07T12:03:58.957Z,32.38
2023-09-07T12:06:29.435Z,32.38
2023-09-07T12:09:03.052Z,32.39
2023-09-07T12:11:33.544Z,32.39
2023-09-07T12:14:04.717Z,32.37
2023-09-07T12:16:35.252Z,32.35
2023-09-07T12:19:05.366Z,32.33
2023-09-07T12:21:35.471Z,32.30
2023-09-07T12:24:07.420Z,32.28
2023-09-07T12:26:37.367Z,32.28
2023-09-07T12:29:08.630Z,32.23
2023-09-07T12:31:38.640Z,32.27
2023-09-07T12:34:09.557Z,32.26
2023-09-07T12:36:39.706Z,32.28
2023-09-07T12:39:13.085Z,32.27
2023-09-07T12:41:42.767Z,32.23
2023-09-07T12:44:13.730Z,32.23
2023-09-07T12:46:43.824Z,32.23
2023-09-07T12:49:15.731Z,32.22
2023-09-07T12:51:46.109Z,32.16
2023-09-07T12:54:16.148Z,32.11
2023-09-07T12:56:46.346Z,32.15
2023-09-07T12:59:16.675Z,32.17
2023-09-07T13:01:48.033Z,32.18
2023-09-07T13:04:17.941Z,32.22
2023-09-07T13:06:47.356Z,32.18
2023-09-07T13:09:17.359Z,32.15
2023-09-07T13:11:47.672Z,32.15
2023-09-07T13:14:19.227Z,32.18
2023-09-07T13:16:52.281Z,32.24
2023-09-07T13:19:23.772Z,32.23
2023-09-07T13:21:53.549Z,32.25
2023-09-07T13:24:24.005Z,32.23
2023-09-07T13:26:56.573Z,32.17
2023-09-07T13:29:27.319Z,32.10
2023-09-07T13:31:59.069Z,32.04
2023-09-07T13:34:29.396Z,32.01
2023-09-07T13:36:59.116Z,32.00
2023-09-07T13:39:29.019Z,32.00
2023-09-07T13:41:58.934Z,31.90
2023-09-07T13:44:29.673Z,31.85
2023-09-07T13:47:00.351Z,31.85
2023-09-07T13:49:31.050Z,31.83
2023-09-07T13:51:59.633Z,31.79
2023-09-07T13:54:29.736Z,31.70
2023-09-07T13:57:01.612Z,31.67
2023-09-07T13:59:34.081Z,31.65
2023-09-07T14:02:05.227Z,31.60
2023-09-07T14:04:34.300Z,31.59
2023-09-07T14:07:03.968Z,31.55
2023-09-07T14:09:34.949Z,31.54
2023-09-07T14:12:06.290Z,31.52
2023-09-07T14:14:36.628Z,31.50
2023-09-07T14:17:07.334Z,31.45
2023-09-07T14:19:37.676Z,31.38
2023-09-07T14:22:07.285Z,31.31
2023-09-07T14:24:37.512Z,31.26
2023-09-07T14:27:09.473Z,31.19
2023-09-07T14:29:39.584Z,31.12
2023-09-07T14:32:09.705Z,31.04
2023-09-07T14:34:39.824Z,31.01
2023-09-07T14:37:09.802Z,30.98
2023-09-07T14:39:40.064Z,30.90
2023-09-07T14:42:14.572Z,30.83
2023-09-07T14:44:44.592Z,30.83
2023-09-07T14:47:16.736Z,30.86
2023-09-07T14:50:15.276Z,30.83
2023-09-07T14:52:54.891Z,30.73
2023-09-07T14:55:40.166Z,30.62
2023-09-07T14:58:23.199Z,30.52
2023-09-07T15:00:53.297Z,30.43
2023-09-07T15:03:23.341Z,30.35
2023-09-07T15:05:53.574Z,30.28
2023-09-07T15:08:24.302Z,30.19
2023-09-07T15:10:54.182Z,30.12
2023-09-07T15:13:24.300Z,30.07
2023-09-07T15:15:54.212Z,29.99
2023-09-07T15:18:24.428Z,29.91
2023-09-07T15:20:55.077Z,29.82
2023-09-07T15:23:25.274Z,29.73
2023-09-07T15:25:56.140Z,29.65
2023-09-07T15:28:26.303Z,29.55
2023-09-07T15:30:56.772Z,29.50
2023-09-07T15:33:27.119Z,29.42
2023-09-07T15:35:57.214Z,29.34
2023-09-07T15:38:27.370Z,29.24
2023-09-07T15:40:58.065Z,29.12
2023-09-07T15:43:28.144Z,29.04
2023-09-07T15:45:59.385Z,28.90
2023-09-07T15:48:29.495Z,28.78
2023-09-07T15:51:00.802Z,28.67
2023-09-07T15:53:34.340Z,28.57
2023-09-07T15:56:06.008Z,28.48
2023-09-07T15:58:36.073Z,28.40
2023-09-07T16:01:06.424Z,28.36
2023-09-07T16:03:36.578Z,28.31
2023-09-07T16:06:07.449Z,28.23
2023-09-07T16:08:37.582Z,28.13
2023-09-07T16:11:07.718Z,28.03
2023-09-07T16:13:37.601Z,27.94
2023-09-07T16:16:07.713Z,27.85
2023-09-07T16:18:38.121Z,27.76
2023-09-07T16:21:10.409Z,27.64
2023-09-07T16:23:40.481Z,27.59
2023-09-07T16:26:10.678Z,27.53
2023-09-07T16:28:40.744Z,27.47
2023-09-07T16:31:10.517Z,27.42
2023-09-07T16:33:40.828Z,27.35
2023-09-07T16:36:10.921Z,27.26
2023-09-07T16:38:41.005Z,27.20
2023-09-07T16:41:11.370Z,27.11
2023-09-07T16:43:41.682Z,27.05
2023-09-07T16:46:11.614Z,26.95
2023-09-07T16:48:41.568Z,26.87
2023-09-07T16:51:11.755Z,26.80
2023-09-07T16:53:41.986Z,26.75
2023-09-07T16:56:12.814Z,26.69
2023-09-07T16:59:08.749Z,26.63
2023-09-07T17:01:33.775Z,26.55
2023-09-07T17:04:03.946Z,26.48
2023-09-07T17:06:34.051Z,26.43
2023-09-07T17:09:04.402Z,26.36
2023-09-07T17:11:35.973Z,26.30
2023-09-07T17:14:06.259Z,26.22
2023-09-07T17:16:37.389Z,26.15
2023-09-07T17:19:08.327Z,26.08
2023-09-07T17:21:39.804Z,26.02
2023-09-07T17:24:11.382Z,25.93
2023-09-07T17:26:41.544Z,25.87
2023-09-07T17:29:11.466Z,25.79
2023-09-07T17:31:41.639Z,25.73
2023-09-07T17:34:11.945Z,25.65
2023-09-07T17:36:42.233Z,25.56
2023-09-07T17:39:11.948Z,25.48
2023-09-07T17:41:41.871Z,25.40
2023-09-07T17:44:11.895Z,25.32
2023-09-07T17:46:42.745Z,25.25
2023-09-07T17:49:13.239Z,25.17
2023-09-07T17:51:43.575Z,25.10
2023-09-07T17:54:14.360Z,25.04
2023-09-07T17:56:44.634Z,24.96
2023-09-07T17:59:14.731Z,24.89
2023-09-07T18:01:47.688Z,24.82
2023-09-07T18:04:17.629Z,24.75
2023-09-07T18:06:47.676Z,24.69
2023-09-07T18:09:19.358Z,24.61
2023-09-07T18:11:49.860Z,24.55
2023-09-07T18:14:19.524Z,24.49
2023-09-07T18:16:49.593Z,24.43
2023-09-07T18:19:19.769Z,24.36
2023-09-07T18:21:50.718Z,24.29
2023-09-07T18:24:23.430Z,24.23
2023-09-07T18:26:53.629Z,24.17
2023-09-07T18:29:23.529Z,24.12
2023-09-07T18:31:53.564Z,24.06
2023-09-07T18:34:23.590Z,23.99
2023-09-07T18:36:56.177Z,23.92
2023-09-07T18:39:26.457Z,23.85
2023-09-07T18:41:56.455Z,23.80
2023-09-07T18:44:28.133Z,23.75
2023-09-07T18:46:58.289Z,23.68
2023-09-07T18:49:29.588Z,23.62
2023-09-07T18:52:00.139Z,23.55
2023-09-07T18:54:30.685Z,23.50
2023-09-07T18:57:01.049Z,23.44
2023-09-07T18:59:34.228Z,23.38
2023-09-07T19:02:05.384Z,23.32
2023-09-07T19:04:39.412Z,23.26
2023-09-07T19:07:10.037Z,23.19
2023-09-07T19:09:43.259Z,23.13
2023-09-07T19:12:13.531Z,23.09
2023-09-07T19:14:44.630Z,23.04
2023-09-07T19:17:15.443Z,22.99
2023-09-07T19:19:46.183Z,22.93
2023-09-07T19:22:15.782Z,22.88
2023-09-07T19:24:47.639Z,22.82
2023-09-07T19:27:17.971Z,22.77
2023-09-07T19:29:48.313Z,22.71
2023-09-07T19:32:20.195Z,22.66
2023-09-07T19:34:50.370Z,22.60
2023-09-07T19:37:20.117Z,22.54
2023-09-07T19:39:50.196Z,22.49
2023-09-07T19:42:20.931Z,22.45
2023-09-07T19:44:51.249Z,22.40
2023-09-07T19:47:21.574Z,22.36
2023-09-07T19:49:51.893Z,22.33
2023-09-07T19:52:21.759Z,22.30
2023-09-07T19:54:51.933Z,22.26
2023-09-07T19:57:21.949Z,22.22
2023-09-07T19:59:53.032Z,22.18
2023-09-07T20:02:23.148Z,22.15
2023-09-07T20:04:53.842Z,22.12
2023-09-07T20:07:23.750Z,22.08
2023-09-07T20:09:53.872Z,22.05
2023-09-07T20:12:24.054Z,22.03
2023-09-07T20:14:54.927Z,21.98
2023-09-07T20:17:25.327Z,21.94
2023-09-07T20:19:56.013Z,21.92
2023-09-07T20:22:28.164Z,21.87
2023-09-07T20:24:58.673Z,21.83
2023-09-07T20:27:28.589Z,21.82
2023-09-07T20:29:58.502Z,21.79
2023-09-07T20:32:29.744Z,21.76
2023-09-07T20:35:00.303Z,21.73
2023-09-07T20:37:30.128Z,21.72
2023-09-07T20:40:00.405Z,21.67
2023-09-07T20:42:30.932Z,21.64
2023-09-07T20:45:01.491Z,21.60
2023-09-07T20:47:31.970Z,21.57
2023-09-07T20:50:01.882Z,21.52
2023-09-07T20:52:31.650Z,21.49
2023-09-07T20:55:01.763Z,21.45
2023-09-07T20:57:31.651Z,21.41
2023-09-07T21:00:01.583Z,21.38
2023-09-07T21:02:32.772Z,21.33
2023-09-07T21:05:03.255Z,21.30
2023-09-07T21:07:33.765Z,21.25
2023-09-07T21:10:04.704Z,21.22
2023-09-07T21:12:34.654Z,21.18
2023-09-07T21:15:06.986Z,21.15
2023-09-07T21:17:36.914Z,21.09
2023-09-07T21:20:11.461Z,21.06
2023-09-07T21:22:41.576Z,21.02
2023-09-07T21:25:13.318Z,20.99
2023-09-07T21:27:44.740Z,20.94
2023-09-07T21:30:16.595Z,20.90
2023-09-07T21:32:47.051Z,20.85
2023-09-07T21:35:18.417Z,20.80
2023-09-07T21:37:48.506Z,20.76
2023-09-07T21:40:18.833Z,20.72
2023-09-07T21:42:49.173Z,20.66
2023-09-07T21:45:19.471Z,20.60
2023-09-07T21:47:49.615Z,20.57
2023-09-07T21:50:20.529Z,20.52
2023-09-07T21:52:50.678Z,20.48
2023-09-07T21:55:21.788Z,20.43
2023-09-07T21:57:52.130Z,20.40
2023-09-07T22:00:22.685Z,20.35
2023-09-07T22:02:53.245Z,20.31
2023-09-07T22:05:24.459Z,20.25
2023-09-07T22:07:54.830Z,20.21
2023-09-07T22:10:26.202Z,20.18
2023-09-07T22:12:59.491Z,20.14
2023-09-07T22:15:30.077Z,20.12
2023-09-07T22:18:00.084Z,20.06
2023-09-07T22:20:32.327Z,20.02
2023-09-07T22:23:05.079Z,19.99
2023-09-07T22:25:34.709Z,19.95
2023-09-07T22:28:06.344Z,19.91
2023-09-07T22:30:37.321Z,19.87
2023-09-07T22:33:08.997Z,19.84
2023-09-07T22:35:39.206Z,19.79
2023-09-07T22:38:09.561Z,19.75
2023-09-07T22:40:39.886Z,19.71
2023-09-07T22:43:10.003Z,19.66
2023-09-07T22:45:44.017Z,19.60
2023-09-07T22:48:13.972Z,19.57
2023-09-07T22:50:48.338Z,19.53
2023-09-07T22:53:22.538Z,19.48
2023-09-07T22:55:53.852Z,19.44
2023-09-07T22:58:24.010Z,19.40
2023-09-07T23:00:54.348Z,19.35
2023-09-07T23:03:24.801Z,19.30
2023-09-07T23:05:55.464Z,19.27
2023-09-07T23:08:25.527Z,19.23
2023-09-07T23:10:55.852Z,19.19
2023-09-07T23:13:26.186Z,19.14
2023-09-07T23:15:56.711Z,19.11
2023-09-07T23:18:27.138Z,19.07
2023-09-07T23:20:57.765Z,19.03
2023-09-07T23:23:28.039Z,19.01
2023-09-07T23:25:58.201Z,18.96
2023-09-07T23:28:28.530Z,18.94
2023-09-07T23:30:58.641Z,18.89
2023-09-07T23:33:28.963Z,18.86
2023-09-07T23:35:59.011Z,18.83
2023-09-07T23:38:28.998Z,18.81
2023-09-07T23:40:59.128Z,18.79
2023-09-07T23:43:29.233Z,18.78
2023-09-07T23:45:59.475Z,18.75
2023-09-07T23:48:29.682Z,18.74
2023-09-07T23:50:59.567Z,18.73
2023-09-07T23:53:29.683Z,18.71
2023-09-07T23:56:00.045Z,18.68
2023-09-07T23:58:31.194Z,18.67
